Latest Weather Observations for Roma

IDQ60801

Issued at 3:02 pm EST Monday 19 November 2018 (issued every 10 minutes, with the page automatically refreshed every 10 minutes)

About weather observations | Map of weather stations | Latest weather observations for QLD | Other Formats
Station Details ID: 043091 Name: ROMA AIRPORT Lat: -26.55 Lon: 148.77 Height: 307.38 m
Data from the previous 72 hours. | See also: Recent months at Roma
Date/Time
EST
Temp
°C
App
Temp
°C
Dew
Point
°C
Rel
Hum
%
Delta-T
°C
Wind Press
QNH
hPa
Press
MSL
hPa
Rain since
9am
mm
Dir  Spd
km/h
Gust
km/h
Spd
kts
Gust
kts
19/03:00pm 28.2 26.2 15.5 46 7.9 NE 20 28 11 15 1013.4 1011.8 0.0
19/02:30pm 27.8 25.6 14.8 45 8.0 NNE 20 32 11 17 1014.1 1012.4 0.0
19/02:00pm 26.9 24.4 14.0 45 7.8 NE 20 33 11 18 1014.7 1013.0 0.0
19/01:30pm 27.4 23.7 15.1 47 7.6 NNE 28 39 15 21 1015.0 1013.4 0.0
19/01:00pm 25.7 23.1 14.8 51 6.6 NE 22 30 12 16 1015.5 1013.9 0.0
19/12:30pm 25.4 23.8 15.1 53 6.3 NE 17 26 9 14 1016.1 1014.5 0.0
19/12:00pm 25.1 22.6 15.1 53 6.1 NNE 22 30 12 16 1016.2 1014.6 0.0
19/11:30am 24.8 22.3 15.1 54 5.9 NNE 22 37 12 20 1016.7 1015.1 0.0
19/11:00am 23.7 21.1 14.9 57 5.3 NNE 22 33 12 18 1017.4 1015.7 0.0
19/10:30am 23.2 20.0 15.3 61 4.8 NNE 26 33 14 18 1017.9 1016.3 0.0
19/10:00am 22.7 19.8 15.0 61 4.6 NE 24 33 13 18 1018.2 1016.6 0.0
19/09:30am 21.9 18.6 15.0 65 4.1 NNE 26 35 14 19 1018.4 1016.8 0.0
19/09:00am 21.6 17.4 14.7 65 4.1 NE 30 39 16 21 1018.6 1017.0 10.2
19/08:30am 21.3 16.8 14.9 67 3.8 NE 32 39 17 21 1018.5 1016.9 10.2
19/08:00am 20.6 16.0 14.5 68 3.6 NNE 32 41 17 22 1018.3 1016.7 10.2
19/07:30am 20.2 16.8 14.8 71 3.2 NE 26 35 14 19 1018.2 1016.6 10.2
19/07:00am 19.9 16.1 14.7 72 3.1 NE 28 37 15 20 1017.9 1016.3 10.2
19/06:30am 19.8 16.0 14.8 73 3.0 NE 28 39 15 21 1017.3 1015.6 10.2
19/06:00am 19.6 16.2 14.8 74 2.8 NE 26 37 14 20 1016.9 1015.3 10.2
19/05:30am 19.3 16.4 15.0 76 2.6 NE 24 35 13 19 1016.6 1015.0 10.2
19/05:00am 19.3 16.1 15.4 78 2.3 NE 26 35 14 19 1016.2 1014.6 10.2
19/04:30am 19.3 16.1 15.4 78 2.3 NE 26 35 14 19 1015.8 1014.2 10.2
19/04:00am 19.3 16.6 15.6 79 2.2 NE 24 30 13 16 1015.8 1014.2 10.2
19/03:30am 19.2 16.9 15.7 80 2.1 NE 22 28 12 15 1015.7 1014.1 10.2
19/03:00am 19.0 17.2 15.9 82 1.9 NE 20 26 11 14 1015.5 1013.9 10.2
19/02:30am 18.6 17.3 15.7 83 1.7 NE 17 20 9 11 1015.7 1014.1 10.2
19/02:00am 19.1 17.9 16.0 82 1.9 NE 17 26 9 14 1015.6 1014.0 10.2
19/01:30am 19.2 18.0 16.1 82 1.9 ENE 17 20 9 11 1015.9 1014.3 10.2
19/01:00am 19.2 17.0 15.9 81 2.0 NE 22 30 12 16 1016.2 1014.6 10.2
19/12:30am 19.3 16.3 15.8 80 2.1 NNE 26 33 14 18 1016.5 1014.9 10.2
19/12:00am 19.3 18.0 15.8 80 2.1 NE 17 24 9 13 1016.9 1015.3 10.2
 
Date/Time
EST
Temp
°C
App
Temp
°C
Dew
Point
°C
Rel
Hum
%
Delta-T
°C
Wind Press
QNH
hPa
Press
MSL
hPa
Rain since
9am
mm
Dir  Spd
km/h
Gust
km/h
Spd
kts
Gust
kts
18/11:30pm 19.4 17.2 15.9 80 2.1 NE 22 30 12 16 1016.8 1015.2 10.2
18/11:00pm 19.5 18.5 15.6 78 2.3 NE 15 20 8 11 1016.5 1014.9 10.2
18/10:30pm 19.4 17.2 15.9 80 2.1 NNE 22 30 12 16 1016.4 1014.8 10.2
18/10:00pm 19.6 16.9 15.7 78 2.3 NNE 24 33 13 18 1016.7 1015.1 10.2
18/09:30pm 19.7 17.7 15.4 76 2.6 NNE 20 26 11 14 1016.2 1014.6 10.2
18/09:00pm 19.9 18.4 15.3 75 2.7 NNE 17 22 9 12 1015.9 1014.3 10.2
18/08:30pm 20.1 18.0 15.1 73 3.0 NE 20 26 11 14 1014.9 1013.2 10.2
18/08:00pm 20.8 17.3 14.5 67 3.7 NE 26 33 14 18 1015.1 1013.5 10.0
18/07:30pm 21.0 19.9 15.3 70 3.4 NNE 15 20 8 11 1015.1 1013.5 10.0
18/07:00pm 21.1 19.7 15.6 71 3.3 NNE 17 24 9 13 1014.3 1012.6 10.0
18/06:30pm 21.6 19.8 15.9 70 3.5 NE 20 30 11 16 1013.4 1011.8 10.0
18/06:00pm 21.4 17.7 17.0 76 2.7 NNE 32 43 17 23 1011.7 1010.0 10.0
18/05:38pm 22.1 17.9 17.2 74 3.1 N 35 50 19 27 1012.3 1010.7 10.0
18/05:30pm 22.2 21.1 17.3 74 3.1 N 19 32 10 17 1013.0 1011.4 10.0
18/05:00pm 22.8 22.5 16.4 67 3.9 ENE 13 17 7 9 1014.0 1012.3 9.6
18/04:30pm 23.7 22.3 17.0 66 4.2 NE 20 30 11 16 1011.9 1010.2 9.6
18/04:00pm 24.8 22.4 15.4 56 5.7 ENE 22 39 12 21 1012.0 1010.3 9.6
18/03:30pm 24.7 22.8 17.7 65 4.4 NE 24 37 13 20 1011.3 1009.6 9.6
18/03:00pm 23.5 21.6 18.6 74 3.1 N 26 33 14 18 1011.7 1010.0 9.6
18/02:55pm 23.4 20.7 19.3 78 2.6 N 32 50 17 27 1011.6 1009.9 9.6
18/02:43pm 22.0 17.4 18.8 82 2.0 NE 41 69 22 37 1011.6 1009.9 9.6
18/02:38pm 21.2 16.1 17.6 80 2.2 E 41 69 22 37 1011.8 1010.1 9.6
18/02:34pm 20.6 16.7 17.8 84 1.8 SE 35 65 19 35 1011.2 1009.5 9.2
18/02:32pm 19.5 16.0 15.4 77 2.5 SSE 28 63 15 34 1011.5 1009.8 8.4
18/02:30pm 20.1 17.0 15.7 76 2.7 S 26 63 14 34 1011.9 1010.2 7.2
18/02:18pm 24.4 21.7 14.5 54 6.0 S 22 37 12 20 1011.4 1009.7 0.0
18/02:00pm 30.3 27.1 13.1 34 10.4 ENE 22 30 12 16 1010.6 1008.9 0.0
18/01:30pm 32.0 29.5 11.2 28 12.2 NNE 15 28 8 15 1011.6 1009.9 0.0
18/01:00pm 32.3 29.4 10.9 27 12.6 ENE 17 28 9 15 1012.6 1011.0 0.0
18/12:30pm 32.8 29.6 11.3 27 12.7 N 19 32 10 17 1013.1 1011.5 0.0
18/12:00pm 33.3 31.2 12.3 28 12.6 NE 15 32 8 17 1013.4 1011.8 0.0
18/11:30am 32.6 29.9 11.7 28 12.4 ENE 17 22 9 12 1013.9 1012.2 0.0
18/11:00am 31.3 29.6 12.6 31 11.2 NNE 13 26 7 14 1014.3 1012.6 0.0
18/10:30am 30.4 27.8 11.9 32 10.9 N 17 26 9 14 1014.7 1013.0 0.0
18/10:00am 30.8 29.9 14.8 37 9.9 NNE 13 26 7 14 1015.0 1013.4 0.0
18/09:30am 28.1 25.6 13.6 41 8.7 NNW 19 28 10 15 1015.1 1013.5 0.0
18/09:00am 27.9 26.0 15.2 46 7.8 NNW 19 26 10 14 1015.2 1013.6 0.0
18/08:30am 26.6 24.0 15.0 49 7.1 NNE 22 32 12 17 1014.9 1013.2 0.0
18/08:00am 25.6 22.4 15.3 53 6.3 N 26 33 14 18 1015.0 1013.4 0.0
18/07:30am 24.8 21.3 15.4 56 5.7 NNE 28 35 15 19 1014.9 1013.2 0.0
18/07:00am 23.0 19.3 15.1 61 4.8 N 28 41 15 22 1014.8 1013.1 0.0
18/06:30am 21.9 18.9 14.8 64 4.2 N 24 35 13 19 1014.6 1012.9 0.0
18/06:00am 21.0 18.9 15.1 69 3.5 N 20 32 11 17 1014.4 1012.7 0.0
18/05:30am 20.1 18.2 15.1 73 3.0 NNE 19 24 10 13 1014.2 1012.5 0.0
18/05:00am 19.9 17.8 15.1 74 2.9 NNE 20 32 11 17 1014.0 1012.3 0.0
18/04:30am 20.2 17.6 15.0 72 3.1 NNE 22 32 12 17 1013.4 1011.8 0.0
18/04:00am 20.6 18.6 14.9 70 3.4 NNE 19 28 10 15 1013.0 1011.4 0.0
18/03:30am 19.5 18.8 15.4 77 2.5 NNE 13 17 7 9 1013.1 1011.5 0.0
18/03:00am 19.8 17.9 15.7 77 2.5 NNE 20 28 11 15 1013.1 1011.5 0.0
18/02:30am 19.0 17.5 14.3 74 2.8 NNE 15 19 8 10 1013.1 1011.5 0.0
18/02:00am 16.8 15.7 12.1 74 2.6 N 9 11 5 6 1012.4 1010.8 0.0
18/01:30am 17.6 18.3 12.1 70 3.1 CALM 0 0 0 0 1012.6 1011.0 0.0
18/01:00am 17.7 18.3 11.9 69 3.2 CALM 0 0 0 0 1012.8 1011.2 0.0
18/12:30am 17.5 17.9 11.3 67 3.4 CALM 0 0 0 0 1013.2 1011.6 0.0
18/12:00am 18.4 17.5 12.6 69 3.3 NE 9 13 5 7 1013.5 1011.9 0.0
 
Date/Time
EST
Temp
°C
App
Temp
°C
Dew
Point
°C
Rel
Hum
%
Delta-T
°C
Wind Press
QNH
hPa
Press
MSL
hPa
Rain since
9am
mm
Dir  Spd
km/h
Gust
km/h
Spd
kts
Gust
kts
17/11:30pm 19.0 19.0 12.3 65 3.8 WSW 4 6 2 3 1013.4 1011.8 0.0
17/11:00pm 19.9 20.5 11.9 60 4.5 CALM 0 0 0 0 1013.7 1012.0 0.0
17/10:30pm 20.8 20.6 13.0 61 4.5 N 6 7 3 4 1013.3 1011.7 0.0
17/10:00pm 21.2 20.2 12.3 57 5.1 NNW 9 11 5 6 1013.3 1011.7 0.0
17/09:30pm 21.9 21.2 13.3 58 5.0 NNW 9 11 5 6 1013.5 1011.9 0.0
17/09:00pm 23.5 22.9 13.4 53 5.9 NW 9 15 5 8 1013.3 1011.7 0.0
17/08:30pm 24.7 23.4 13.6 50 6.6 NW 13 17 7 9 1013.0 1011.4 0.0
17/08:00pm 25.7 23.2 13.5 46 7.3 NW 19 24 10 13 1013.2 1011.6 0.0
17/07:30pm 26.0 23.0 12.5 43 7.9 NNW 20 28 11 15 1013.2 1011.6 0.0
17/07:00pm 27.0 22.7 11.9 39 8.8 NNW 26 35 14 19 1013.1 1011.5 0.0
17/06:30pm 27.4 22.9 11.4 37 9.3 N 26 33 14 18 1011.9 1010.2 0.0
17/06:00pm 28.0 23.0 11.1 35 9.8 N 28 35 15 19 1011.4 1009.7 0.0
17/05:30pm 28.9 23.8 13.6 39 9.2 N 33 43 18 23 1011.1 1009.4 0.0
17/05:00pm 31.0 25.5 11.9 31 11.3 N 32 43 17 23 1010.5 1008.8 0.0
17/04:30pm 31.5 26.1 12.3 31 11.5 N 32 41 17 22 1010.4 1008.7 0.0
17/04:00pm 32.7 27.6 11.8 28 12.5 NNE 30 41 16 22 1010.1 1008.5 0.0
17/03:30pm 32.5 28.1 11.6 28 12.4 NE 26 37 14 20 1010.3 1008.6 0.0
17/03:00pm 32.7 27.8 11.3 27 12.7 NE 28 39 15 21 1010.4 1008.7 0.0
17/02:47pm 32.6 27.7 11.2 27 12.6 NE 28 37 15 20 1010.4 1008.7 0.0
17/02:30pm 35.6 32.8 5.0 15 16.6 SW 9 15 5 8 1010.4 1008.7 0.0
17/02:00pm 35.6 31.6 6.8 17 16.1 SE 17 32 9 17 1010.6 1008.9 0.0
17/01:30pm 35.3 31.9 5.7 16 16.2 SW 13 20 7 11 1011.0 1009.3 0.0
17/01:00pm 36.4 32.2 7.4 17 16.4 S 19 26 10 14 1011.5 1009.8 0.0
17/12:30pm 34.6 31.6 7.6 19 15.2 S 13 20 7 11 1012.1 1010.5 0.0
17/12:00pm 34.5 31.6 8.3 20 14.9 SSW 13 20 7 11 1012.5 1010.9 0.0
17/11:30am 35.1 31.6 8.8 20 15.1 SSW 17 20 9 11 1013.0 1011.4 0.0
17/11:00am 33.8 31.7 8.4 21 14.4 NNE 9 13 5 7 1013.5 1011.9 0.0
17/10:30am 33.1 31.0 11.0 26 13.0 NNW 13 20 7 11 1014.1 1012.4 0.0
17/10:00am 31.8 29.5 11.6 29 12.0 NNW 15 20 8 11 1014.5 1012.8 0.0
17/09:30am 30.6 28.2 11.5 30 11.2 NNW 15 22 8 12 1014.6 1012.9 0.0
17/09:00am 29.4 27.3 12.3 34 10.1 N 15 20 8 11 1014.8 1013.1 0.0
17/08:30am 28.6 25.9 12.9 38 9.4 N 19 28 10 15 1014.6 1012.9 0.0
17/08:00am 26.9 23.6 12.9 42 8.3 N 22 30 12 16 1014.6 1012.9 0.0
17/07:30am 26.0 22.3 12.8 44 7.8 N 24 33 13 18 1014.4 1012.7 0.0
17/07:00am 24.9 21.9 12.5 46 7.2 N 20 26 11 14 1014.3 1012.6 0.0
17/06:30am 23.9 21.0 10.9 44 7.3 N 17 24 9 13 1013.9 1012.2 0.0
17/06:00am 19.7 17.8 7.4 45 6.4 NNE 7 11 4 6 1013.5 1011.9 0.0
17/05:30am 16.4 14.1 5.7 49 5.2 NW 7 7 4 4 1013.1 1011.5 0.0
17/05:00am 16.9 15.9 5.8 48 5.5 CALM 0 0 0 0 1012.7 1011.1 0.0
17/04:30am 17.1 15.4 5.7 47 5.6 NNE 4 9 2 5 1012.6 1011.0 0.0
17/04:00am 18.3 15.8 4.5 40 6.7 SSW 7 13 4 7 1012.2 1010.6 0.0
17/03:30am 20.0 16.3 4.5 36 7.6 SSE 13 15 7 8 1012.2 1010.6 0.0
17/03:00am 20.3 18.7 4.4 35 7.8 SE 2 9 1 5 1012.0 1010.3 0.0
17/02:30am 20.2 18.6 4.3 35 7.8 ESE 2 6 1 3 1012.1 1010.5 0.0
17/02:00am 22.7 20.3 4.2 30 9.2 SSE 6 7 3 4 1012.3 1010.7 0.0
17/01:30am 22.2 19.8 4.3 31 8.9 SSW 6 7 3 4 1012.5 1010.9 0.0
17/01:00am 22.7 21.5 4.7 31 9.0 CALM 0 0 0 0 1012.8 1011.2 0.0
17/12:30am 23.6 22.4 4.5 29 9.6 CALM 0 0 0 0 1013.0 1011.4 0.0
17/12:00am 23.1 21.9 4.6 30 9.3 CALM 0 0 0 0 1013.7 1012.0 0.0
 
Date/Time
EST
Temp
°C
App
Temp
°C
Dew
Point
°C
Rel
Hum
%
Delta-T
°C
Wind Press
QNH
hPa
Press
MSL
hPa
Rain since
9am
mm
Dir  Spd
km/h
Gust
km/h
Spd
kts
Gust
kts
16/11:30pm 23.6 21.1 4.5 29 9.6 N 7 9 4 5 1013.5 1011.9 0.0
16/11:00pm 23.6 20.7 4.5 29 9.6 NNE 9 11 5 6 1013.9 1012.2 0.0
16/10:30pm 23.3 20.4 4.8 30 9.3 N 9 15 5 8 1014.0 1012.3 0.0
16/10:00pm 24.7 22.3 4.5 27 10.2 SE 6 9 3 5 1013.9 1012.2 0.0
16/09:30pm 25.6 21.7 3.6 24 11.0 SSW 13 15 7 8 1013.7 1012.0 0.0
16/09:00pm 27.7 23.9 4.1 22 12.1 S 13 15 7 8 1013.4 1011.8 0.0
16/08:30pm 26.6 24.2 4.4 24 11.4 ESE 6 9 3 5 1013.1 1011.5 0.0
16/08:00pm 28.4 27.1 4.0 21 12.5 CALM 0 6 0 3 1012.7 1011.1 0.0
16/07:30pm 27.9 25.1 2.2 19 12.8 S 6 9 3 5 1012.5 1010.9 0.0
16/07:00pm 29.8 26.8 2.1 17 13.9 S 7 11 4 6 1012.3 1010.7 0.0
16/06:30pm 32.0 27.9 2.1 15 15.2 SSE 13 17 7 9 1012.0 1010.3 0.0
16/06:00pm 33.9 30.5 1.6 13 16.5 SSW 9 11 5 6 1011.6 1009.9 0.0
16/05:30pm 35.3 30.5 2.7 13 17.1 SSE 17 22 9 12 1011.5 1009.8 0.0
16/05:00pm 36.2 31.9 3.4 13 17.5 SE 15 20 8 11 1011.4 1009.7 0.0
16/04:30pm 36.3 32.2 2.4 12 17.8 SSW 13 20 7 11 1011.3 1009.6 0.0
16/04:00pm 35.8 31.5 3.1 13 17.3 S 15 22 8 12 1011.4 1009.7 0.0
16/03:30pm 36.4 32.9 3.6 13 17.5 SE 11 24 6 13 1011.6 1009.9 0.0

Other Formats:

Comma delimited format used in spreadsheet applications
http://www.bom.gov.au/fwo/IDQ60801/IDQ60801.94515.axf

JavaScript Object Notation format (JSON) in row-major order
http://www.bom.gov.au/fwo/IDQ60801/IDQ60801.94515.json